createdAt,value
2018-11-25T00:00:00.911Z,123
2018-11-25T00:00:13.334Z,123
2018-11-25T00:00:25.720Z,123
2018-11-25T00:00:38.125Z,123
2018-11-25T00:00:50.498Z,123
2018-11-25T00:01:02.956Z,123
2018-11-25T00:01:15.511Z,123
2018-11-25T00:01:27.901Z,123
2018-11-25T00:01:40.289Z,123
2018-11-25T00:01:52.696Z,123
2018-11-25T00:02:05.094Z,123
2018-11-25T00:02:17.476Z,123
2018-11-25T00:02:29.863Z,123
2018-11-25T00:02:42.300Z,123
2018-11-25T00:02:54.679Z,123
2018-11-25T00:03:07.063Z,123
2018-11-25T00:03:19.448Z,123
2018-11-25T00:03:31.849Z,123
2018-11-25T00:03:44.220Z,123
2018-11-25T00:03:56.606Z,123
2018-11-25T00:04:08.992Z,123
2018-11-25T00:04:21.479Z,123
2018-11-25T00:04:33.851Z,123
2018-11-25T00:04:46.220Z,123
2018-11-25T00:04:58.647Z,123
2018-11-25T00:05:11.505Z,123
2018-11-25T00:05:23.876Z,123
2018-11-25T00:05:36.304Z,123
2018-11-25T00:05:48.675Z,123
2018-11-25T00:06:01.056Z,123
2018-11-25T00:06:13.445Z,123
2018-11-25T00:06:25.810Z,123
2018-11-25T00:06:38.224Z,123
2018-11-25T00:06:51.703Z,123
2018-11-25T00:07:04.077Z,123
2018-11-25T00:07:16.470Z,123
2018-11-25T00:07:36.685Z,123
2018-11-25T00:07:49.075Z,123
2018-11-25T00:08:01.463Z,123
2018-11-25T00:08:13.846Z,123
2018-11-25T00:08:26.256Z,123
2018-11-25T00:08:38.633Z,123
2018-11-25T00:08:51.008Z,123
2018-11-25T00:09:03.409Z,123
2018-11-25T00:09:15.785Z,123
2018-11-25T00:09:28.285Z,123
2018-11-25T00:09:40.655Z,123
2018-11-25T00:09:53.024Z,123
2018-11-25T00:10:05.487Z,123
2018-11-25T00:10:18.106Z,123
2018-11-25T00:10:30.504Z,123
2018-11-25T00:10:42.881Z,123
2018-11-25T00:10:55.272Z,123
2018-11-25T00:11:07.638Z,123
2018-11-25T00:11:20.195Z,123
2018-11-25T00:11:32.563Z,123
2018-11-25T00:11:45.001Z,123
2018-11-25T00:11:57.474Z,123
2018-11-25T00:12:09.864Z,123
2018-11-25T00:12:22.235Z,123
2018-11-25T00:12:34.615Z,123
2018-11-25T00:12:47.005Z,123
2018-11-25T00:12:59.396Z,123
2018-11-25T00:13:11.760Z,123
2018-11-25T00:13:24.842Z,123
2018-11-25T00:13:37.292Z,123
2018-11-25T00:13:49.782Z,123
2018-11-25T00:14:02.164Z,123
2018-11-25T00:14:14.546Z,123
2018-11-25T00:14:26.920Z,123
2018-11-25T00:14:39.303Z,123
2018-11-25T00:14:51.670Z,123
2018-11-25T00:15:04.035Z,123
2018-11-25T00:15:16.431Z,123
2018-11-25T00:15:28.839Z,123
2018-11-25T00:15:41.251Z,123
2018-11-25T00:15:53.716Z,123
2018-11-25T00:16:06.125Z,123
2018-11-25T00:16:18.498Z,123
2018-11-25T00:16:30.886Z,123
2018-11-25T00:16:43.260Z,123
2018-11-25T00:16:55.621Z,123
2018-11-25T00:17:08.021Z,123
2018-11-25T00:17:20.498Z,123
2018-11-25T00:17:32.877Z,123
2018-11-25T00:17:45.261Z,123
2018-11-25T00:17:57.648Z,123
2018-11-25T00:18:10.014Z,123
2018-11-25T00:18:23.813Z,123
2018-11-25T00:18:36.196Z,123
2018-11-25T00:18:48.558Z,123
2018-11-25T00:19:00.961Z,123
2018-11-25T00:19:13.413Z,123
2018-11-25T00:19:25.812Z,123
2018-11-25T00:19:38.237Z,123
2018-11-25T00:19:50.615Z,123
2018-11-25T00:20:03.008Z,123
2018-11-25T00:20:15.412Z,123
2018-11-25T00:20:28.163Z,123
2018-11-25T00:20:40.543Z,123
2018-11-25T00:20:52.962Z,123
2018-11-25T00:21:05.344Z,123
2018-11-25T00:21:17.743Z,123
2018-11-25T00:21:30.150Z,123
2018-11-25T00:21:42.583Z,123
2018-11-25T00:21:54.963Z,123
2018-11-25T00:22:07.359Z,123
2018-11-25T00:22:19.749Z,123
2018-11-25T00:22:32.122Z,123
2018-11-25T00:22:44.499Z,123
2018-11-25T00:22:56.874Z,123
2018-11-25T00:23:09.253Z,123
2018-11-25T00:23:21.629Z,123
2018-11-25T00:23:34.005Z,123
2018-11-25T00:23:46.383Z,123
2018-11-25T00:23:58.773Z,123
2018-11-25T00:24:11.158Z,123
2018-11-25T00:24:23.559Z,123
2018-11-25T00:24:35.938Z,123
2018-11-25T00:24:48.317Z,123
2018-11-25T00:25:00.689Z,123
2018-11-25T00:25:13.094Z,123
2018-11-25T00:25:25.500Z,123
2018-11-25T00:25:37.911Z,123
2018-11-25T00:25:50.452Z,123
2018-11-25T00:26:02.870Z,123
2018-11-25T00:26:15.546Z,123
2018-11-25T00:26:27.915Z,123
2018-11-25T00:26:40.299Z,123
2018-11-25T00:26:52.668Z,123
2018-11-25T00:27:05.041Z,123
2018-11-25T00:27:17.429Z,123
2018-11-25T00:27:29.796Z,123
2018-11-25T00:27:42.186Z,123
2018-11-25T00:27:54.573Z,123
2018-11-25T00:28:06.957Z,123
2018-11-25T00:28:19.638Z,123
2018-11-25T00:28:32.086Z,123
2018-11-25T00:28:44.468Z,123
2018-11-25T00:28:56.857Z,123
2018-11-25T00:29:09.226Z,123
2018-11-25T00:29:21.600Z,123
2018-11-25T00:29:33.966Z,123
2018-11-25T00:29:46.350Z,123
2018-11-25T00:29:58.732Z,123
2018-11-25T00:30:11.119Z,123
2018-11-25T00:30:23.762Z,123
2018-11-25T00:30:36.276Z,123
2018-11-25T00:30:48.668Z,123
2018-11-25T00:31:04.635Z,123
2018-11-25T00:31:21.617Z,123
2018-11-25T00:31:34.007Z,123
2018-11-25T00:31:46.427Z,123
2018-11-25T00:31:58.851Z,123
2018-11-25T00:32:11.308Z,123
2018-11-25T00:32:23.698Z,123
2018-11-25T00:32:36.134Z,123
2018-11-25T00:32:48.538Z,123
2018-11-25T00:33:00.919Z,123
2018-11-25T00:33:13.642Z,123
2018-11-25T00:33:26.019Z,123
2018-11-25T00:33:38.412Z,123
2018-11-25T00:33:50.767Z,123
2018-11-25T00:34:03.126Z,123
2018-11-25T00:34:15.531Z,123
2018-11-25T00:34:27.899Z,123
2018-11-25T00:34:40.273Z,123
2018-11-25T00:34:52.640Z,123
2018-11-25T00:35:05.009Z,123
2018-11-25T00:35:18.118Z,123
2018-11-25T00:35:30.514Z,123
2018-11-25T00:35:42.896Z,123
2018-11-25T00:35:55.292Z,123
2018-11-25T00:36:07.694Z,123
2018-11-25T00:36:20.120Z,123
2018-11-25T00:36:32.488Z,123
2018-11-25T00:36:44.863Z,123
2018-11-25T00:36:57.243Z,123
2018-11-25T00:37:09.620Z,123
2018-11-25T00:37:22.004Z,123
2018-11-25T00:37:34.414Z,123
2018-11-25T00:37:54.580Z,123
2018-11-25T00:38:07.000Z,123
2018-11-25T00:38:19.405Z,123
2018-11-25T00:38:31.796Z,123
2018-11-25T00:38:44.464Z,123
2018-11-25T00:38:56.857Z,123
2018-11-25T00:39:09.241Z,123
2018-11-25T00:39:21.630Z,123
2018-11-25T00:39:34.015Z,123
2018-11-25T00:39:46.387Z,123
2018-11-25T00:39:58.754Z,123
2018-11-25T00:40:11.151Z,123
2018-11-25T00:40:23.596Z,123
2018-11-25T00:40:35.962Z,123
2018-11-25T00:40:48.343Z,123
2018-11-25T00:41:00.725Z,123
2018-11-25T00:41:13.296Z,123
2018-11-25T00:41:25.666Z,123
2018-11-25T00:41:38.036Z,123
2018-11-25T00:41:50.417Z,123
2018-11-25T00:42:02.807Z,123
2018-11-25T00:42:15.218Z,123
2018-11-25T00:42:27.668Z,123
2018-11-25T00:42:40.044Z,123
2018-11-25T00:42:52.500Z,123
2018-11-25T00:43:04.868Z,123
2018-11-25T00:43:17.242Z,123
2018-11-25T00:43:29.627Z,123
2018-11-25T00:43:42.019Z,123
2018-11-25T00:43:54.396Z,123
2018-11-25T00:44:06.784Z,123
2018-11-25T00:44:19.381Z,123
2018-11-25T00:44:31.765Z,123
2018-11-25T00:44:44.133Z,123
2018-11-25T00:44:56.511Z,123
2018-11-25T00:45:08.895Z,123
2018-11-25T00:45:21.291Z,123
2018-11-25T00:45:33.670Z,123
2018-11-25T00:45:46.052Z,123
2018-11-25T00:45:58.568Z,123
2018-11-25T00:46:11.006Z,123
2018-11-25T00:46:23.461Z,123
2018-11-25T00:46:35.886Z,123
2018-11-25T00:46:48.271Z,123
2018-11-25T00:47:00.643Z,123
2018-11-25T00:47:13.021Z,123
2018-11-25T00:47:25.404Z,123
2018-11-25T00:47:37.783Z,123
2018-11-25T00:47:50.257Z,123
2018-11-25T00:48:02.632Z,123
2018-11-25T00:48:15.011Z,123
2018-11-25T00:48:27.394Z,123
2018-11-25T00:48:39.767Z,123
2018-11-25T00:48:52.166Z,123
2018-11-25T00:49:04.542Z,123
2018-11-25T00:49:16.926Z,123
2018-11-25T00:49:29.283Z,123
2018-11-25T00:49:41.650Z,123
2018-11-25T00:49:54.089Z,123
2018-11-25T00:50:06.469Z,123
2018-11-25T00:50:19.103Z,123
2018-11-25T00:50:31.494Z,123
2018-11-25T00:50:43.876Z,123
2018-11-25T00:50:56.273Z,123
2018-11-25T00:51:08.658Z,123
2018-11-25T00:51:21.032Z,123
2018-11-25T00:51:33.409Z,123
2018-11-25T00:51:45.772Z,123
2018-11-25T00:51:58.273Z,123
2018-11-25T00:52:10.644Z,123
2018-11-25T00:52:23.050Z,123
2018-11-25T00:52:35.417Z,123
2018-11-25T00:52:47.841Z,123
2018-11-25T00:53:00.469Z,123
2018-11-25T00:53:12.894Z,123
2018-11-25T00:53:25.278Z,123
2018-11-25T00:53:37.714Z,123
2018-11-25T00:53:50.083Z,123
2018-11-25T00:54:02.460Z,123
2018-11-25T00:54:14.833Z,123
2018-11-25T00:54:27.423Z,123
2018-11-25T00:54:39.882Z,123
2018-11-25T00:54:52.299Z,123
2018-11-25T00:55:04.717Z,123
2018-11-25T00:55:17.118Z,123
2018-11-25T00:55:29.516Z,123
2018-11-25T00:55:41.877Z,123
2018-11-25T00:55:54.304Z,123
2018-11-25T00:56:06.700Z,123
2018-11-25T00:56:19.156Z,123
2018-11-25T00:56:31.578Z,123
2018-11-25T00:56:43.961Z,123
2018-11-25T00:56:56.348Z,123
2018-11-25T00:57:08.713Z,123
2018-11-25T00:57:21.076Z,123
2018-11-25T00:57:33.588Z,123
2018-11-25T00:57:46.014Z,123
2018-11-25T00:57:58.482Z,123
2018-11-25T00:58:10.863Z,123
2018-11-25T00:58:23.240Z,123
2018-11-25T00:58:35.634Z,123
2018-11-25T00:58:48.020Z,123
2018-11-25T00:59:00.496Z,123
2018-11-25T00:59:14.191Z,123
2018-11-25T00:59:26.574Z,123
2018-11-25T00:59:38.961Z,123
2018-11-25T00:59:51.338Z,123
2018-11-25T01:00:03.721Z,123
2018-11-25T01:00:16.116Z,123
2018-11-25T01:00:28.557Z,123
2018-11-25T01:00:41.031Z,123
2018-11-25T01:00:53.428Z,123
2018-11-25T01:01:05.829Z,123
2018-11-25T01:01:18.207Z,123
2018-11-25T01:01:30.583Z,123
2018-11-25T01:01:42.962Z,123
2018-11-25T01:01:55.362Z,123
2018-11-25T01:02:07.760Z,123
2018-11-25T01:02:20.153Z,123
2018-11-25T01:02:32.576Z,123
2018-11-25T01:02:44.969Z,123
2018-11-25T01:02:57.395Z,123
2018-11-25T01:03:09.776Z,123
2018-11-25T01:03:22.197Z,123
2018-11-25T01:03:34.584Z,123
2018-11-25T01:03:47.007Z,123
2018-11-25T01:03:59.378Z,123
2018-11-25T01:04:11.820Z,123
2018-11-25T01:04:24.221Z,123
2018-11-25T01:04:36.606Z,123
2018-11-25T01:04:48.983Z,123
2018-11-25T01:05:01.353Z,123
2018-11-25T01:05:13.946Z,123
2018-11-25T01:05:26.346Z,123
2018-11-25T01:05:38.789Z,123
2018-11-25T01:05:51.174Z,123
2018-11-25T01:06:03.543Z,123
2018-11-25T01:06:15.937Z,123
2018-11-25T01:06:28.318Z,123
2018-11-25T01:06:40.699Z,123
2018-11-25T01:06:53.061Z,123
2018-11-25T01:07:05.446Z,123
2018-11-25T01:07:17.845Z,123
2018-11-25T01:07:30.230Z,123
2018-11-25T01:07:42.615Z,123
2018-11-25T01:07:55.000Z,123
2018-11-25T01:08:07.436Z,123
2018-11-25T01:08:19.820Z,123
2018-11-25T01:08:32.213Z,123
2018-11-25T01:08:44.618Z,123
2018-11-25T01:08:57.004Z,123
2018-11-25T01:09:09.361Z,123
2018-11-25T01:09:21.893Z,123
2018-11-25T01:09:34.290Z,123
2018-11-25T01:09:46.661Z,123
2018-11-25T01:09:59.069Z,123
2018-11-25T01:10:11.451Z,123
2018-11-25T01:10:23.947Z,123
2018-11-25T01:10:36.332Z,123
2018-11-25T01:10:48.848Z,123
2018-11-25T01:11:01.224Z,123
2018-11-25T01:11:13.606Z,123
2018-11-25T01:11:25.980Z,123
2018-11-25T01:11:38.359Z,123
2018-11-25T01:11:50.725Z,123
2018-11-25T01:12:03.237Z,123
2018-11-25T01:12:15.661Z,123
2018-11-25T01:12:28.168Z,123
2018-11-25T01:12:40.553Z,123
2018-11-25T01:12:52.939Z,123
2018-11-25T01:13:05.328Z,123
2018-11-25T01:13:17.778Z,123
2018-11-25T01:13:30.163Z,123
2018-11-25T01:13:42.543Z,123
2018-11-25T01:13:55.015Z,123
2018-11-25T01:14:07.378Z,123
2018-11-25T01:14:19.745Z,123
2018-11-25T01:14:32.206Z,123
2018-11-25T01:14:44.585Z,123
2018-11-25T01:14:56.994Z,123
2018-11-25T01:15:09.379Z,123
2018-11-25T01:15:21.772Z,123
2018-11-25T01:15:34.158Z,123
2018-11-25T01:15:46.530Z,123
2018-11-25T01:15:58.916Z,123
2018-11-25T01:16:11.295Z,123
2018-11-25T01:16:23.679Z,123
2018-11-25T01:16:36.061Z,123
2018-11-25T01:16:48.467Z,123
2018-11-25T01:17:00.823Z,123
2018-11-25T01:17:13.205Z,123
2018-11-25T01:17:25.734Z,123
2018-11-25T01:17:38.116Z,123
2018-11-25T01:17:50.529Z,123
2018-11-25T01:18:02.929Z,123
2018-11-25T01:18:15.296Z,123
2018-11-25T01:18:27.667Z,123
2018-11-25T01:18:40.065Z,123
2018-11-25T01:18:52.435Z,123
2018-11-25T01:19:04.827Z,123
2018-11-25T01:19:17.219Z,123
2018-11-25T01:19:29.617Z,123
2018-11-25T01:19:41.989Z,123
2018-11-25T01:19:54.358Z,123
2018-11-25T01:20:06.753Z,123
2018-11-25T01:20:19.576Z,123
2018-11-25T01:20:31.948Z,124
2018-11-25T01:20:44.479Z,124
2018-11-25T01:20:56.868Z,124
2018-11-25T01:21:09.234Z,124
2018-11-25T01:21:21.601Z,124
2018-11-25T01:21:33.971Z,124
2018-11-25T01:21:46.365Z,124
2018-11-25T01:21:58.758Z,124
2018-11-25T01:22:11.197Z,124
2018-11-25T01:22:23.576Z,124
2018-11-25T01:22:35.944Z,124
2018-11-25T01:22:48.336Z,124
2018-11-25T01:23:00.726Z,124
2018-11-25T01:23:13.092Z,124
2018-11-25T01:23:25.467Z,124
2018-11-25T01:23:37.840Z,124
2018-11-25T01:23:50.210Z,124
2018-11-25T01:24:02.586Z,124
2018-11-25T01:24:14.957Z,124
2018-11-25T01:24:27.321Z,124
2018-11-25T01:24:39.718Z,124
2018-11-25T01:24:52.089Z,124
2018-11-25T01:25:04.467Z,124
2018-11-25T01:25:16.876Z,124
2018-11-25T01:25:29.295Z,124
2018-11-25T01:25:41.728Z,124
2018-11-25T01:25:54.279Z,124
2018-11-25T01:26:06.655Z,124
2018-11-25T01:26:19.268Z,124
2018-11-25T01:26:31.641Z,124
2018-11-25T01:26:44.031Z,124
2018-11-25T01:26:56.409Z,124
2018-11-25T01:27:08.794Z,124
2018-11-25T01:27:21.184Z,124
2018-11-25T01:27:33.574Z,124
2018-11-25T01:27:45.952Z,124
2018-11-25T01:27:58.342Z,124
2018-11-25T01:28:10.730Z,124
2018-11-25T01:28:23.106Z,124
2018-11-25T01:28:35.494Z,124
2018-11-25T01:28:47.886Z,124
2018-11-25T01:29:00.270Z,124
2018-11-25T01:29:12.686Z,124
2018-11-25T01:29:25.082Z,124
2018-11-25T01:29:37.443Z,124
2018-11-25T01:29:49.856Z,124
2018-11-25T01:30:02.238Z,124
2018-11-25T01:30:14.630Z,124
2018-11-25T01:30:27.103Z,124
2018-11-25T01:30:39.577Z,124
2018-11-25T01:30:51.993Z,140
2018-11-25T01:31:04.365Z,140
2018-11-25T01:31:16.752Z,143
2018-11-25T01:31:29.149Z,143
2018-11-25T01:31:41.530Z,151
2018-11-25T01:31:53.930Z,156
2018-11-25T01:32:06.323Z,148
2018-11-25T01:32:18.700Z,147
2018-11-25T01:32:31.693Z,147
2018-11-25T01:32:44.080Z,147
2018-11-25T01:32:56.472Z,147
2018-11-25T01:33:08.851Z,146
2018-11-25T01:33:21.340Z,146
2018-11-25T01:33:33.719Z,146
2018-11-25T01:33:46.114Z,146
2018-11-25T01:33:58.527Z,146
2018-11-25T01:34:10.929Z,146
2018-11-25T01:34:23.354Z,146
2018-11-25T01:34:35.826Z,146
2018-11-25T01:34:48.204Z,146
2018-11-25T01:35:08.569Z,146
2018-11-25T01:35:20.988Z,148
2018-11-25T01:35:33.417Z,155
2018-11-25T01:35:45.807Z,163
2018-11-25T01:35:58.174Z,163
2018-11-25T01:36:10.573Z,163
2018-11-25T01:36:22.964Z,163
2018-11-25T01:36:35.350Z,159
2018-11-25T01:36:47.722Z,159
2018-11-25T01:37:00.122Z,159
2018-11-25T01:37:12.508Z,161
2018-11-25T01:37:24.892Z,160
2018-11-25T01:37:37.271Z,160
2018-11-25T01:37:49.671Z,160
2018-11-25T01:38:02.063Z,158
2018-11-25T01:38:14.467Z,157
2018-11-25T01:38:27.060Z,157
2018-11-25T01:38:39.693Z,157
2018-11-25T01:38:52.074Z,157
2018-11-25T01:39:04.438Z,157
2018-11-25T01:39:16.808Z,157
2018-11-25T01:39:29.198Z,157
2018-11-25T01:39:41.577Z,157
2018-11-25T01:39:53.946Z,157
2018-11-25T01:40:06.350Z,155
2018-11-25T01:40:18.765Z,155
2018-11-25T01:40:31.171Z,155
2018-11-25T01:40:43.551Z,155
2018-11-25T01:40:55.943Z,155
2018-11-25T01:41:08.571Z,155
2018-11-25T01:41:20.968Z,154
2018-11-25T01:41:33.345Z,154
2018-11-25T01:41:45.725Z,154
2018-11-25T01:41:58.210Z,154
2018-11-25T01:42:10.603Z,154
2018-11-25T01:42:22.980Z,154
2018-11-25T01:42:35.557Z,154
2018-11-25T01:42:48.011Z,154
2018-11-25T01:43:00.372Z,154
2018-11-25T01:43:12.765Z,154
2018-11-25T01:43:25.130Z,154
2018-11-25T01:43:37.509Z,154
2018-11-25T01:43:49.942Z,154
2018-11-25T01:44:02.439Z,154
2018-11-25T01:44:15.024Z,154
2018-11-25T01:44:27.559Z,154
2018-11-25T01:44:39.940Z,154
2018-11-25T01:44:52.307Z,154
2018-11-25T01:45:04.694Z,154
2018-11-25T01:45:17.132Z,154
2018-11-25T01:45:29.883Z,154
2018-11-25T01:45:42.261Z,154
2018-11-25T01:45:54.779Z,154
2018-11-25T01:46:07.162Z,154
2018-11-25T01:46:19.540Z,154
2018-11-25T01:46:31.894Z,154
2018-11-25T01:46:44.273Z,154
2018-11-25T01:46:56.663Z,154
2018-11-25T01:47:09.020Z,154
2018-11-25T01:47:21.387Z,154
2018-11-25T01:47:33.760Z,154
2018-11-25T01:47:46.145Z,154
2018-11-25T01:47:58.515Z,154
2018-11-25T01:48:10.890Z,154
2018-11-25T01:48:23.319Z,154
2018-11-25T01:48:35.697Z,154
2018-11-25T01:48:48.078Z,154
2018-11-25T01:49:00.454Z,154
2018-11-25T01:49:12.827Z,154
2018-11-25T01:49:26.047Z,154
2018-11-25T01:49:38.488Z,154
2018-11-25T01:49:50.940Z,154
2018-11-25T01:50:03.326Z,154
2018-11-25T01:50:15.899Z,154
2018-11-25T01:50:28.324Z,154
2018-11-25T01:50:40.712Z,154
2018-11-25T01:50:53.140Z,154
2018-11-25T01:51:05.561Z,154
2018-11-25T01:51:17.946Z,154
2018-11-25T01:51:30.336Z,154
2018-11-25T01:51:42.719Z,154
2018-11-25T01:51:55.224Z,154
2018-11-25T01:52:07.608Z,154
2018-11-25T01:52:19.969Z,154
2018-11-25T01:52:32.338Z,154
2018-11-25T01:52:44.728Z,154
2018-11-25T01:52:57.299Z,154
2018-11-25T01:53:09.654Z,154
2018-11-25T01:53:22.026Z,154
2018-11-25T01:53:34.403Z,154
2018-11-25T01:53:46.770Z,154
2018-11-25T01:53:59.179Z,154
2018-11-25T01:54:11.561Z,154
2018-11-25T01:54:24.090Z,154
2018-11-25T01:54:36.484Z,154
2018-11-25T01:54:48.851Z,154
2018-11-25T01:55:01.237Z,154
2018-11-25T01:55:13.683Z,154
2018-11-25T01:55:26.071Z,154
2018-11-25T01:55:38.453Z,154
2018-11-25T01:55:50.831Z,154
2018-11-25T01:56:03.330Z,154
2018-11-25T01:56:15.696Z,154
2018-11-25T01:56:28.074Z,154
2018-11-25T01:56:40.450Z,154
2018-11-25T01:56:52.849Z,154
2018-11-25T01:57:05.228Z,154
2018-11-25T01:57:17.605Z,154
2018-11-25T01:57:29.968Z,154
2018-11-25T01:57:42.373Z,154
2018-11-25T01:57:54.797Z,154
2018-11-25T01:58:07.200Z,154
2018-11-25T01:58:19.643Z,154
2018-11-25T01:58:32.034Z,154
2018-11-25T01:58:44.457Z,154
2018-11-25T01:58:56.830Z,154
2018-11-25T01:59:09.767Z,154
2018-11-25T01:59:22.145Z,154
2018-11-25T01:59:34.523Z,154
2018-11-25T01:59:46.903Z,154
2018-11-25T01:59:59.280Z,154
2018-11-25T02:00:11.696Z,154
2018-11-25T02:00:24.115Z,154
2018-11-25T02:00:36.525Z,154
2018-11-25T02:00:48.950Z,154
2018-11-25T02:01:01.415Z,154
2018-11-25T02:01:13.808Z,154
2018-11-25T02:01:26.190Z,154
2018-11-25T02:01:38.569Z,154
2018-11-25T02:01:50.935Z,154
2018-11-25T02:02:03.331Z,154
2018-11-25T02:02:15.739Z,154
2018-11-25T02:02:28.140Z,154
2018-11-25T02:02:40.523Z,154
2018-11-25T02:02:52.924Z,154
2018-11-25T02:03:05.317Z,154
2018-11-25T02:03:17.714Z,154
2018-11-25T02:03:30.120Z,154
2018-11-25T02:03:42.493Z,154
2018-11-25T02:03:54.883Z,154
2018-11-25T02:04:07.266Z,154
2018-11-25T02:04:19.655Z,154
2018-11-25T02:04:32.029Z,154
2018-11-25T02:04:44.418Z,154
2018-11-25T02:04:56.789Z,154
2018-11-25T02:05:09.339Z,154
2018-11-25T02:05:21.735Z,154
2018-11-25T02:05:34.121Z,154
2018-11-25T02:05:46.500Z,154
2018-11-25T02:05:59.039Z,154
2018-11-25T02:06:11.427Z,154
2018-11-25T02:06:23.819Z,154
2018-11-25T02:06:36.185Z,154
2018-11-25T02:06:48.564Z,154
2018-11-25T02:07:00.966Z,154
2018-11-25T02:07:13.340Z,154
2018-11-25T02:07:26.083Z,154
2018-11-25T02:07:38.527Z,154
2018-11-25T02:07:50.936Z,154
2018-11-25T02:08:03.317Z,154
2018-11-25T02:08:15.693Z,154
2018-11-25T02:08:28.088Z,154
2018-11-25T02:08:40.515Z,154
2018-11-25T02:08:52.904Z,154
2018-11-25T02:09:05.283Z,154
2018-11-25T02:09:17.666Z,154
2018-11-25T02:09:30.138Z,154
2018-11-25T02:09:42.519Z,154
2018-11-25T02:09:54.879Z,154
2018-11-25T02:10:07.309Z,154
2018-11-25T02:10:19.719Z,154
2018-11-25T02:10:32.111Z,154
2018-11-25T02:10:44.523Z,154
2018-11-25T02:10:56.909Z,154
2018-11-25T02:11:09.304Z,154
2018-11-25T02:11:21.679Z,154
2018-11-25T02:11:34.061Z,154
2018-11-25T02:11:46.417Z,154
2018-11-25T02:11:58.795Z,154
2018-11-25T02:12:11.170Z,154
2018-11-25T02:12:23.550Z,154
2018-11-25T02:12:35.974Z,154
2018-11-25T02:12:48.394Z,154
2018-11-25T02:13:00.771Z,153
2018-11-25T02:13:13.143Z,153
2018-11-25T02:13:25.535Z,153
2018-11-25T02:13:37.920Z,153
2018-11-25T02:13:50.394Z,153
2018-11-25T02:14:02.764Z,153
2018-11-25T02:14:15.133Z,153
2018-11-25T02:14:27.515Z,153
2018-11-25T02:14:39.917Z,153
2018-11-25T02:14:52.305Z,153
2018-11-25T02:15:04.683Z,153
2018-11-25T02:15:17.065Z,153
2018-11-25T02:15:29.432Z,153
2018-11-25T02:15:41.818Z,153
2018-11-25T02:15:54.187Z,153
2018-11-25T02:16:06.557Z,153
2018-11-25T02:16:18.921Z,153
2018-11-25T02:16:31.283Z,153
2018-11-25T02:16:43.672Z,153
2018-11-25T02:16:56.045Z,153
2018-11-25T02:17:08.422Z,153
2018-11-25T02:17:20.796Z,153
2018-11-25T02:17:33.160Z,153
2018-11-25T02:17:45.620Z,153
2018-11-25T02:17:58.039Z,153
2018-11-25T02:18:10.415Z,153
2018-11-25T02:18:22.792Z,153
2018-11-25T02:18:35.174Z,153
2018-11-25T02:18:47.591Z,153
2018-11-25T02:18:59.953Z,153
2018-11-25T02:19:12.318Z,153
2018-11-25T02:19:24.704Z,153
2018-11-25T02:19:37.127Z,153
2018-11-25T02:19:49.528Z,153
2018-11-25T02:20:01.907Z,153
2018-11-25T02:20:14.280Z,153
2018-11-25T02:20:26.815Z,153
2018-11-25T02:20:39.195Z,153
2018-11-25T02:20:51.725Z,153
2018-11-25T02:21:04.098Z,153
2018-11-25T02:21:16.477Z,153
2018-11-25T02:21:28.863Z,153
2018-11-25T02:21:41.374Z,153
2018-11-25T02:21:53.754Z,153
2018-11-25T02:22:06.126Z,153
2018-11-25T02:22:18.495Z,153
2018-11-25T02:22:31.374Z,153
2018-11-25T02:22:43.745Z,153
2018-11-25T02:22:56.131Z,153
2018-11-25T02:23:08.647Z,153
2018-11-25T02:23:21.061Z,153
2018-11-25T02:23:33.427Z,153
2018-11-25T02:23:45.812Z,153
2018-11-25T02:23:58.204Z,153
2018-11-25T02:24:10.572Z,153
2018-11-25T02:24:22.958Z,153
2018-11-25T02:24:35.322Z,153
2018-11-25T02:24:47.684Z,153
2018-11-25T02:25:00.103Z,153
2018-11-25T02:25:12.544Z,153
2018-11-25T02:25:24.965Z,153
2018-11-25T02:25:37.354Z,153
2018-11-25T02:25:49.898Z,153
2018-11-25T02:26:02.298Z,153
2018-11-25T02:26:14.837Z,153
2018-11-25T02:26:27.250Z,153
2018-11-25T02:26:39.620Z,153
2018-11-25T02:26:51.984Z,153
2018-11-25T02:27:04.364Z,153
2018-11-25T02:27:16.748Z,153
2018-11-25T02:27:29.131Z,153
2018-11-25T02:27:41.527Z,153
2018-11-25T02:27:53.953Z,153
2018-11-25T02:28:06.347Z,153
2018-11-25T02:28:18.733Z,153
2018-11-25T02:28:31.103Z,153
2018-11-25T02:28:43.489Z,153
2018-11-25T02:28:55.856Z,153
2018-11-25T02:29:08.232Z,153
2018-11-25T02:29:20.608Z,153
2018-11-25T02:29:32.986Z,153
2018-11-25T02:29:45.376Z,153
2018-11-25T02:29:57.734Z,153
2018-11-25T02:30:10.142Z,153
2018-11-25T02:30:22.728Z,153
2018-11-25T02:30:35.322Z,153
2018-11-25T02:30:47.711Z,153
2018-11-25T02:31:00.146Z,153
2018-11-25T02:31:12.542Z,153
2018-11-25T02:31:24.930Z,153
2018-11-25T02:31:37.321Z,153
2018-11-25T02:31:49.702Z,153
2018-11-25T02:32:02.094Z,153
2018-11-25T02:32:14.492Z,153
2018-11-25T02:32:26.863Z,153
2018-11-25T02:32:39.265Z,153
2018-11-25T02:32:51.652Z,153
2018-11-25T02:33:04.022Z,153
2018-11-25T02:33:16.412Z,153
2018-11-25T02:33:28.797Z,153
2018-11-25T02:33:41.175Z,153
2018-11-25T02:33:53.527Z,153
2018-11-25T02:34:05.889Z,153
2018-11-25T02:34:18.259Z,153
2018-11-25T02:34:30.636Z,153
2018-11-25T02:34:43.078Z,153
2018-11-25T02:34:55.458Z,153
2018-11-25T02:35:07.841Z,153
2018-11-25T02:35:20.212Z,153
2018-11-25T02:35:32.632Z,153
2018-11-25T02:35:45.001Z,153
2018-11-25T02:35:57.379Z,153
2018-11-25T02:36:09.748Z,153
2018-11-25T02:36:22.117Z,153
2018-11-25T02:36:34.507Z,153
2018-11-25T02:36:46.881Z,153
2018-11-25T02:36:59.277Z,153
2018-11-25T02:37:11.649Z,153
2018-11-25T02:37:24.038Z,153
2018-11-25T02:37:36.399Z,153
2018-11-25T02:37:48.808Z,153
2018-11-25T02:38:01.194Z,153
2018-11-25T02:38:13.569Z,153
2018-11-25T02:38:25.931Z,153
2018-11-25T02:38:38.288Z,153
2018-11-25T02:38:50.991Z,153
2018-11-25T02:39:03.474Z,153
2018-11-25T02:39:15.839Z,153
2018-11-25T02:39:28.226Z,153
2018-11-25T02:39:40.612Z,153
2018-11-25T02:39:52.995Z,153
2018-11-25T02:40:05.393Z,153
2018-11-25T02:40:17.794Z,153
2018-11-25T02:40:30.191Z,153
2018-11-25T02:40:42.579Z,153
2018-11-25T02:40:54.954Z,153
2018-11-25T02:41:07.650Z,153
2018-11-25T02:41:20.023Z,153
2018-11-25T02:41:32.440Z,153
2018-11-25T02:41:44.965Z,153
2018-11-25T02:41:57.343Z,153
2018-11-25T02:42:09.716Z,153
2018-11-25T02:42:22.113Z,153
2018-11-25T02:42:34.652Z,153
2018-11-25T02:42:47.037Z,153
2018-11-25T02:42:59.401Z,153
2018-11-25T02:43:11.765Z,153
2018-11-25T02:43:25.317Z,153
2018-11-25T02:43:37.697Z,153
2018-11-25T02:43:50.080Z,153
2018-11-25T02:44:02.454Z,153
2018-11-25T02:44:14.959Z,153
2018-11-25T02:44:27.526Z,153
2018-11-25T02:44:39.908Z,153
2018-11-25T02:44:52.294Z,153
2018-11-25T02:45:04.712Z,153
2018-11-25T02:45:17.117Z,153
2018-11-25T02:45:29.486Z,153
2018-11-25T02:45:41.864Z,153
2018-11-25T02:45:54.398Z,153
2018-11-25T02:46:06.879Z,153
2018-11-25T02:46:19.278Z,153
2018-11-25T02:46:31.654Z,153
2018-11-25T02:46:44.030Z,153
2018-11-25T02:46:56.450Z,153
2018-11-25T02:47:08.831Z,153
2018-11-25T02:47:21.193Z,153
2018-11-25T02:47:33.578Z,153
2018-11-25T02:47:45.940Z,153
2018-11-25T02:47:58.469Z,153
2018-11-25T02:48:10.841Z,153
2018-11-25T02:48:23.220Z,153
2018-11-25T02:48:35.587Z,153
2018-11-25T02:48:47.977Z,153
2018-11-25T02:49:00.740Z,153
2018-11-25T02:49:13.118Z,153
2018-11-25T02:49:25.486Z,153
2018-11-25T02:49:37.882Z,153
2018-11-25T02:49:50.406Z,153
2018-11-25T02:50:02.783Z,153
2018-11-25T02:50:15.581Z,153
2018-11-25T02:50:28.024Z,153
2018-11-25T02:50:40.401Z,153
2018-11-25T02:50:52.794Z,153
2018-11-25T02:51:05.167Z,153
2018-11-25T02:51:17.613Z,153
2018-11-25T02:51:29.974Z,153